createdAt,value
2018-02-03T00:02:09.589Z,2.50
2018-02-03T00:04:37.137Z,2.60
2018-02-03T00:07:04.622Z,2.60
2018-02-03T00:09:32.117Z,2.60
2018-02-03T00:11:59.606Z,2.60
2018-02-03T00:14:27.069Z,2.60
2018-02-03T00:16:54.517Z,2.60
2018-02-03T00:19:23.482Z,2.60
2018-02-03T00:21:50.933Z,2.60
2018-02-03T00:24:19.162Z,2.60
2018-02-03T00:26:46.622Z,2.60
2018-02-03T00:29:14.869Z,2.60
2018-02-03T00:31:42.326Z,2.70
2018-02-03T00:34:09.830Z,2.70
2018-02-03T00:36:37.277Z,2.70
2018-02-03T00:39:04.733Z,2.70
2018-02-03T00:41:32.285Z,2.70
2018-02-03T00:43:59.745Z,2.70
2018-02-03T00:46:27.196Z,2.70
2018-02-03T00:48:54.743Z,2.70
2018-02-03T00:51:22.208Z,2.70
2018-02-03T00:53:49.725Z,2.70
2018-02-03T00:56:17.842Z,2.70
2018-02-03T00:58:45.333Z,2.60
2018-02-03T01:01:12.829Z,2.60
2018-02-03T01:03:40.283Z,2.50
2018-02-03T01:06:07.854Z,2.50
2018-02-03T01:08:36.096Z,2.50
2018-02-03T01:11:03.561Z,2.40
2018-02-03T01:13:31.018Z,2.40
2018-02-03T01:15:59.234Z,2.30
2018-02-03T01:18:27.549Z,2.30
2018-02-03T01:20:55.777Z,2.10
2018-02-03T01:23:24.025Z,2.10
2018-02-03T01:25:51.475Z,2.00
2018-02-03T01:28:18.934Z,2.00
2018-02-03T01:30:46.416Z,1.90
2018-02-03T01:33:13.878Z,1.90
2018-02-03T01:35:41.345Z,1.90
2018-02-03T01:38:08.800Z,1.90
2018-02-03T01:40:36.256Z,1.90
2018-02-03T01:43:03.712Z,1.90
2018-02-03T01:45:31.168Z,1.80
2018-02-03T01:47:59.384Z,1.80
2018-02-03T01:50:26.856Z,1.80
2018-02-03T01:52:54.319Z,1.70
2018-02-03T01:55:22.538Z,1.40
2018-02-03T01:57:49.991Z,1.40
2018-02-03T02:00:18.406Z,1.20
2018-02-03T02:02:45.876Z,1.20
2018-02-03T02:05:13.330Z,1.10
2018-02-03T02:07:40.793Z,1.10
2018-02-03T02:10:08.245Z,1.20
2018-02-03T02:12:36.466Z,1.20
2018-02-03T02:15:03.991Z,1.10
2018-02-03T02:17:31.469Z,1.20
2018-02-03T02:19:58.938Z,1.20
2018-02-03T02:22:26.424Z,1.20
2018-02-03T02:24:53.901Z,1.10
2018-02-03T02:27:21.365Z,1.00
2018-02-03T02:29:48.825Z,1.00
2018-02-03T02:32:29.893Z,1.00
2018-02-03T02:34:57.384Z,1.00
2018-02-03T02:37:24.887Z,1.00
2018-02-03T02:39:52.396Z,1.10
2018-02-03T02:42:20.675Z,1.20
2018-02-03T02:44:48.236Z,1.20
2018-02-03T02:47:15.697Z,1.30
2018-02-03T02:49:43.344Z,1.30
2018-02-03T02:52:11.601Z,1.40
2018-02-03T02:54:39.092Z,1.40
2018-02-03T02:57:06.576Z,1.50
2018-02-03T02:59:34.053Z,1.50
2018-02-03T03:02:01.572Z,1.60
2018-02-03T03:04:29.054Z,1.60
2018-02-03T03:06:57.328Z,1.70
2018-02-03T03:09:24.797Z,1.60
2018-02-03T03:11:52.311Z,1.70
2018-02-03T03:14:19.799Z,1.70
2018-02-03T03:16:47.266Z,1.80
2018-02-03T03:19:15.645Z,1.80
2018-02-03T03:21:50.112Z,1.90
2018-02-03T03:24:17.573Z,1.90
2018-02-03T03:26:45.033Z,1.90
2018-02-03T03:29:13.244Z,1.90
2018-02-03T03:31:40.699Z,1.90
2018-02-03T03:34:08.957Z,1.90
2018-02-03T03:36:36.411Z,1.80
2018-02-03T03:39:04.633Z,1.80
2018-02-03T03:41:32.136Z,1.80
2018-02-03T03:43:59.602Z,1.80
2018-02-03T03:46:27.074Z,1.80
2018-02-03T03:48:54.589Z,1.80
2018-02-03T03:51:22.046Z,1.80
2018-02-03T03:53:49.561Z,1.80
2018-02-03T03:56:17.054Z,1.80
2018-02-03T03:58:44.518Z,1.80
2018-02-03T04:01:12.057Z,1.80
2018-02-03T04:03:39.656Z,1.80
2018-02-03T04:06:07.870Z,1.90
2018-02-03T04:08:36.097Z,1.90
2018-02-03T04:11:03.550Z,1.90
2018-02-03T04:13:31.773Z,1.90
2018-02-03T04:15:59.229Z,1.90
2018-02-03T04:18:27.462Z,1.90
2018-02-03T04:20:54.920Z,1.90
2018-02-03T04:23:23.160Z,1.90
2018-02-03T04:25:50.645Z,1.90
2018-02-03T04:28:18.141Z,2.00
2018-02-03T04:30:45.606Z,1.90
2018-02-03T04:33:13.065Z,2.00
2018-02-03T04:35:40.517Z,2.00
2018-02-03T04:38:08.749Z,2.00
2018-02-03T04:40:36.200Z,2.00
2018-02-03T04:43:04.457Z,2.00
2018-02-03T04:45:31.926Z,2.00
2018-02-03T04:47:59.420Z,2.00
2018-02-03T04:50:26.921Z,2.00
2018-02-03T04:52:54.401Z,2.00
2018-02-03T04:55:21.883Z,2.00
2018-02-03T04:57:49.360Z,2.00
2018-02-03T05:00:16.870Z,2.00
2018-02-03T05:02:44.340Z,2.00
2018-02-03T05:05:11.914Z,2.00
2018-02-03T05:07:39.376Z,2.00
2018-02-03T05:10:07.626Z,1.90
2018-02-03T05:12:35.085Z,1.90
2018-02-03T05:15:02.546Z,2.00
2018-02-03T05:17:30.768Z,1.90
2018-02-03T05:19:58.225Z,1.90
2018-02-03T05:22:26.481Z,2.00
2018-02-03T05:24:53.941Z,2.00
2018-02-03T05:27:21.394Z,1.90
2018-02-03T05:29:49.645Z,2.00
2018-02-03T05:32:17.129Z,2.00
2018-02-03T05:34:44.594Z,2.00
2018-02-03T05:37:12.062Z,2.00
2018-02-03T05:39:39.523Z,2.00
2018-02-03T05:42:07.742Z,2.00
2018-02-03T05:44:35.193Z,2.00
2018-02-03T05:47:03.419Z,2.00
2018-02-03T05:49:30.905Z,1.90
2018-02-03T05:51:58.414Z,1.90
2018-02-03T05:54:25.876Z,2.00
2018-02-03T05:56:53.335Z,1.90
2018-02-03T05:59:21.580Z,2.00
2018-02-03T06:01:49.061Z,1.90
2018-02-03T06:04:16.525Z,2.00
2018-02-03T06:06:44.003Z,2.00
2018-02-03T06:09:11.452Z,2.00
2018-02-03T06:11:38.913Z,2.00
2018-02-03T06:14:06.481Z,2.00
2018-02-03T06:16:34.720Z,2.10
2018-02-03T06:19:02.206Z,2.10
2018-02-03T06:21:29.665Z,2.10
2018-02-03T06:23:57.116Z,2.00
2018-02-03T06:26:25.381Z,2.10
2018-02-03T06:28:52.862Z,2.10
2018-02-03T06:31:20.342Z,2.10
2018-02-03T06:33:47.806Z,2.10
2018-02-03T06:36:15.271Z,2.10
2018-02-03T06:38:43.009Z,2.10
2018-02-03T06:41:10.458Z,2.10
2018-02-03T06:43:37.913Z,2.10
2018-02-03T06:46:06.165Z,2.10
2018-02-03T06:48:33.619Z,2.10
2018-02-03T06:51:01.842Z,2.10
2018-02-03T06:53:29.349Z,2.10
2018-02-03T06:55:56.833Z,2.10
2018-02-03T06:58:24.309Z,2.10
2018-02-03T07:00:51.766Z,2.00
2018-02-03T07:03:19.229Z,2.00
2018-02-03T07:05:46.684Z,2.00
2018-02-03T07:08:14.168Z,2.00
2018-02-03T07:10:41.625Z,2.00
2018-02-03T07:13:09.079Z,2.00
2018-02-03T07:15:37.305Z,2.00
2018-02-03T07:18:04.760Z,2.00
2018-02-03T07:20:32.217Z,2.00
2018-02-03T07:22:59.693Z,2.10
2018-02-03T07:25:27.147Z,2.10
2018-02-03T07:27:55.406Z,2.10
2018-02-03T07:30:22.866Z,2.10
2018-02-03T07:32:50.328Z,2.10
2018-02-03T07:35:18.541Z,2.20
2018-02-03T07:37:46.009Z,2.20
2018-02-03T07:40:14.229Z,2.20
2018-02-03T07:42:41.745Z,2.20
2018-02-03T07:45:10.068Z,2.20
2018-02-03T07:47:37.644Z,2.20
2018-02-03T07:50:05.858Z,2.30
2018-02-03T07:52:33.316Z,2.30
2018-02-03T07:55:01.541Z,2.40
2018-02-03T07:57:29.052Z,2.40
2018-02-03T07:59:56.513Z,2.50
2018-02-03T08:02:24.047Z,2.60
2018-02-03T08:04:51.533Z,2.70
2018-02-03T08:07:19.802Z,3.00
2018-02-03T08:09:47.287Z,3.00
2018-02-03T08:12:14.753Z,3.00
2018-02-03T08:14:42.269Z,3.00
2018-02-03T08:17:09.761Z,2.90
2018-02-03T08:19:37.214Z,2.80
2018-02-03T08:22:04.717Z,2.80
2018-02-03T08:24:32.177Z,2.70
2018-02-03T08:27:00.411Z,2.80
2018-02-03T08:29:27.962Z,2.80
2018-02-03T08:31:55.557Z,2.90
2018-02-03T08:34:23.021Z,2.90
2018-02-03T08:36:51.265Z,3.10
2018-02-03T08:39:18.743Z,3.10
2018-02-03T08:41:46.448Z,3.30
2018-02-03T08:44:14.057Z,3.70
2018-02-03T08:46:41.510Z,4.30
2018-02-03T08:49:09.079Z,4.70
2018-02-03T08:51:36.803Z,4.70
2018-02-03T08:54:04.344Z,4.50
2018-02-03T08:56:31.837Z,4.30
2018-02-03T08:58:59.334Z,4.00
2018-02-03T09:01:26.889Z,3.90
2018-02-03T09:03:54.355Z,3.90
2018-02-03T09:06:21.842Z,3.80
2018-02-03T09:08:50.075Z,3.70
2018-02-03T09:11:17.545Z,3.60
2018-02-03T09:13:45.378Z,3.60
2018-02-03T09:16:13.954Z,3.50
2018-02-03T09:18:41.421Z,3.50
2018-02-03T09:21:08.970Z,3.50
2018-02-03T09:23:36.581Z,3.60
2018-02-03T09:26:04.076Z,3.60
2018-02-03T09:28:31.531Z,3.60
2018-02-03T09:31:00.505Z,3.60
2018-02-03T09:33:28.092Z,3.60
2018-02-03T09:35:56.452Z,3.50
2018-02-03T09:38:24.917Z,3.40
2018-02-03T09:40:52.544Z,3.40
2018-02-03T09:43:20.109Z,3.30
2018-02-03T09:45:47.821Z,3.20
2018-02-03T09:48:15.316Z,3.30
2018-02-03T09:50:43.987Z,3.30
2018-02-03T09:53:11.446Z,3.30
2018-02-03T09:55:39.712Z,3.20
2018-02-03T09:58:07.313Z,3.20
2018-02-03T10:00:34.815Z,3.20
2018-02-03T10:03:02.355Z,3.40
2018-02-03T10:05:29.808Z,3.70
2018-02-03T10:07:57.282Z,3.80
2018-02-03T10:10:25.525Z,3.50
2018-02-03T10:12:53.072Z,3.50
2018-02-03T10:15:20.580Z,3.10
2018-02-03T10:17:48.173Z,3.00
2018-02-03T10:20:15.634Z,2.90
2018-02-03T10:22:44.665Z,3.10
2018-02-03T10:25:12.109Z,3.10
2018-02-03T10:27:39.922Z,3.50
2018-02-03T10:30:08.177Z,4.30
2018-02-03T10:32:35.730Z,4.30
2018-02-03T10:35:03.189Z,3.90
2018-02-03T10:37:30.655Z,3.60
2018-02-03T10:39:58.937Z,3.30
2018-02-03T10:42:26.383Z,3.30
2018-02-03T10:44:53.830Z,3.30
2018-02-03T10:47:21.440Z,3.40
2018-02-03T10:49:48.895Z,3.30
2018-02-03T10:52:16.412Z,3.40
2018-02-03T10:54:45.006Z,3.60
2018-02-03T10:57:12.870Z,3.70
2018-02-03T10:59:41.169Z,3.60
2018-02-03T11:02:08.810Z,3.60
2018-02-03T11:04:37.053Z,3.60
2018-02-03T11:07:04.617Z,3.60
2018-02-03T11:09:32.870Z,4.40
2018-02-03T11:12:02.013Z,5.00
2018-02-03T11:14:30.357Z,5.40
2018-02-03T11:16:58.576Z,5.20
2018-02-03T11:19:26.029Z,5.10
2018-02-03T11:21:53.548Z,5.50
2018-02-03T11:24:21.045Z,5.50
2018-02-03T11:26:48.505Z,5.60
2018-02-03T11:29:15.956Z,5.60
2018-02-03T11:31:45.153Z,5.80
2018-02-03T11:34:13.935Z,5.80
2018-02-03T11:36:42.261Z,6.20
2018-02-03T11:39:13.827Z,6.20
2018-02-03T11:41:46.681Z,6.20
2018-02-03T11:44:16.750Z,6.00
2018-02-03T11:46:48.353Z,5.60
2018-02-03T11:49:27.701Z,5.60
2018-02-03T11:51:55.248Z,5.50
2018-02-03T11:54:22.707Z,5.30
2018-02-03T11:56:50.212Z,5.30
2018-02-03T11:59:17.670Z,5.10
2018-02-03T12:01:45.884Z,5.40
2018-02-03T12:04:14.135Z,5.40
2018-02-03T12:06:41.884Z,5.30
2018-02-03T12:09:09.437Z,5.00
2018-02-03T12:11:36.934Z,5.10
2018-02-03T12:14:04.377Z,5.20
2018-02-03T12:16:31.890Z,5.10
2018-02-03T12:18:59.414Z,5.00
2018-02-03T12:21:26.939Z,5.10
2018-02-03T12:23:54.534Z,5.20
2018-02-03T12:26:22.081Z,5.20
2018-02-03T12:28:49.601Z,5.40
2018-02-03T12:31:17.105Z,5.40
2018-02-03T12:33:44.630Z,5.60
2018-02-03T12:36:12.985Z,5.80
2018-02-03T12:38:40.471Z,5.80
2018-02-03T12:41:08.341Z,5.60
2018-02-03T12:43:35.911Z,5.50
2018-02-03T12:46:03.397Z,5.20
2018-02-03T12:48:31.613Z,4.80
2018-02-03T12:50:59.072Z,4.80
2018-02-03T12:53:27.338Z,4.80
2018-02-03T12:55:54.790Z,4.80
2018-02-03T12:58:23.021Z,4.80
2018-02-03T13:00:51.230Z,4.70
2018-02-03T13:03:18.678Z,4.70
2018-02-03T13:05:46.942Z,4.50
2018-02-03T13:08:14.400Z,4.50
2018-02-03T13:10:41.901Z,4.40
2018-02-03T13:13:09.354Z,4.40
2018-02-03T13:15:36.966Z,4.50
2018-02-03T13:18:04.453Z,4.50
2018-02-03T13:20:32.793Z,4.20
2018-02-03T13:23:01.044Z,4.10
2018-02-03T13:25:28.553Z,4.10
2018-02-03T13:27:55.997Z,4.00
2018-02-03T13:30:24.250Z,3.80
2018-02-03T13:32:51.706Z,3.80
2018-02-03T13:35:19.209Z,3.70
2018-02-03T13:37:46.774Z,3.70
2018-02-03T13:40:14.228Z,3.70
2018-02-03T13:42:41.764Z,3.70
2018-02-03T13:45:09.224Z,3.70
2018-02-03T13:47:36.974Z,3.60
2018-02-03T13:50:04.802Z,3.70
2018-02-03T13:52:32.266Z,3.60
2018-02-03T13:55:00.491Z,3.50
2018-02-03T13:57:27.936Z,3.50
2018-02-03T13:59:56.197Z,3.40
2018-02-03T14:02:23.668Z,3.40
2018-02-03T14:04:51.127Z,3.30
2018-02-03T14:07:18.577Z,3.40
2018-02-03T14:09:46.805Z,3.40
2018-02-03T14:12:14.264Z,3.40
2018-02-03T14:14:41.818Z,3.40
2018-02-03T14:17:09.279Z,3.40
2018-02-03T14:19:36.778Z,3.40
2018-02-03T14:22:04.286Z,3.40
2018-02-03T14:24:37.562Z,3.50
2018-02-03T14:27:05.797Z,3.60
2018-02-03T14:29:33.297Z,3.50
2018-02-03T14:32:00.786Z,3.60
2018-02-03T14:34:28.239Z,3.60
2018-02-03T14:36:55.690Z,3.60
2018-02-03T14:39:23.942Z,3.60
2018-02-03T14:41:51.433Z,3.70
2018-02-03T14:44:18.919Z,3.60
2018-02-03T14:46:46.413Z,3.50
2018-02-03T14:49:14.542Z,3.50
2018-02-03T14:51:42.009Z,3.50
2018-02-03T14:54:10.229Z,3.30
2018-02-03T14:56:38.461Z,3.30
2018-02-03T14:59:06.751Z,3.30
2018-02-03T15:01:34.306Z,3.30
2018-02-03T15:04:01.775Z,3.30
2018-02-03T15:06:29.255Z,3.20
2018-02-03T15:08:56.744Z,3.20
2018-02-03T15:11:24.199Z,3.20
2018-02-03T15:13:51.654Z,3.10
2018-02-03T15:16:19.112Z,3.10
2018-02-03T15:18:46.583Z,3.00
2018-02-03T15:21:14.067Z,3.00
2018-02-03T15:23:41.526Z,3.00
2018-02-03T15:26:09.786Z,2.90
2018-02-03T15:28:37.244Z,2.80
2018-02-03T15:31:04.796Z,2.80
2018-02-03T15:33:32.254Z,2.70
2018-02-03T15:36:00.492Z,2.50
2018-02-03T15:38:27.948Z,2.50
2018-02-03T15:40:55.462Z,2.50
2018-02-03T15:43:22.974Z,2.40
2018-02-03T15:45:50.513Z,2.40
2018-02-03T15:48:17.979Z,2.30
2018-02-03T15:50:45.421Z,2.30
2018-02-03T15:53:13.885Z,2.30
2018-02-03T15:55:42.156Z,2.20
2018-02-03T15:58:09.630Z,2.20
2018-02-03T16:00:37.077Z,2.20
2018-02-03T16:03:04.524Z,2.20
2018-02-03T16:05:32.078Z,2.20
2018-02-03T16:07:59.533Z,2.10
2018-02-03T16:10:26.983Z,2.10
2018-02-03T16:12:55.241Z,2.00
2018-02-03T16:15:22.718Z,2.00
2018-02-03T16:17:50.210Z,2.00
2018-02-03T16:20:17.665Z,2.00
2018-02-03T16:22:45.118Z,1.90
2018-02-03T16:25:13.917Z,1.90
2018-02-03T16:27:41.461Z,1.90
2018-02-03T16:30:08.922Z,1.90
2018-02-03T16:32:36.370Z,1.90
2018-02-03T16:35:04.606Z,1.70
2018-02-03T16:37:32.113Z,1.70
2018-02-03T16:39:59.579Z,1.60
2018-02-03T16:42:27.041Z,1.50
2018-02-03T16:44:54.508Z,1.50
2018-02-03T16:47:21.974Z,1.40
2018-02-03T16:49:49.469Z,1.40
2018-02-03T16:52:16.943Z,1.40
2018-02-03T16:54:45.111Z,1.40
2018-02-03T16:57:13.342Z,1.30
2018-02-03T16:59:40.809Z,1.30
2018-02-03T17:02:08.265Z,1.30
2018-02-03T17:04:35.733Z,1.10
2018-02-03T17:07:03.983Z,1.10
2018-02-03T17:09:31.450Z,1.00
2018-02-03T17:11:59.672Z,0.80
2018-02-03T17:14:27.174Z,0.80
2018-02-03T17:16:54.635Z,0.70
2018-02-03T17:19:22.098Z,0.60
2018-02-03T17:21:49.793Z,0.40
2018-02-03T17:24:17.388Z,0.30
2018-02-03T17:26:44.861Z,0.10
2018-02-03T17:29:12.334Z,0.00
2018-02-03T17:31:40.585Z,-0.30
2018-02-03T17:34:08.150Z,-0.30
2018-02-03T17:36:41.282Z,-0.30
2018-02-03T17:39:15.290Z,-0.30
2018-02-03T17:41:42.984Z,-0.40
2018-02-03T17:44:11.827Z,-0.40
2018-02-03T17:46:45.068Z,-0.40
2018-02-03T17:49:12.585Z,-0.40
2018-02-03T17:51:40.672Z,-0.40
2018-02-03T17:54:08.134Z,-0.40
2018-02-03T17:56:41.444Z,-0.50
2018-02-03T17:59:08.955Z,-0.50
2018-02-03T18:01:36.423Z,-0.60
2018-02-03T18:04:03.903Z,-0.60
2018-02-03T18:06:36.959Z,-0.60
2018-02-03T18:09:04.438Z,-0.70
2018-02-03T18:11:31.891Z,-0.80
2018-02-03T18:13:59.369Z,-0.80
2018-02-03T18:16:26.834Z,-0.80
2018-02-03T18:18:55.070Z,-0.80
2018-02-03T18:21:22.541Z,-0.80
2018-02-03T18:23:50.010Z,-0.90
2018-02-03T18:26:17.549Z,-0.90
2018-02-03T18:28:45.153Z,-0.90
2018-02-03T18:31:12.704Z,-0.90
2018-02-03T18:33:40.173Z,-0.90
2018-02-03T18:36:07.647Z,-0.90
2018-02-03T18:38:35.124Z,-0.90
2018-02-03T18:41:02.648Z,-0.80
2018-02-03T18:43:30.117Z,-0.70
2018-02-03T18:45:57.612Z,-0.70
2018-02-03T18:48:25.109Z,-0.60
2018-02-03T18:50:52.592Z,-0.60
2018-02-03T18:53:20.082Z,-0.50
2018-02-03T18:55:47.570Z,-0.50
2018-02-03T18:58:15.213Z,-0.50
2018-02-03T19:00:43.500Z,-0.50
2018-02-03T19:03:11.050Z,-0.50
2018-02-03T19:05:38.534Z,-0.50
2018-02-03T19:08:06.006Z,-0.50
2018-02-03T19:10:33.474Z,-0.40
2018-02-03T19:13:00.943Z,-0.30
2018-02-03T19:15:29.170Z,-0.30
2018-02-03T19:17:56.702Z,-0.30
2018-02-03T19:20:24.402Z,-0.20
2018-02-03T19:22:53.382Z,-0.10
2018-02-03T19:25:20.900Z,-0.10
2018-02-03T19:27:48.613Z,-0.10
2018-02-03T19:30:16.125Z,-0.10
2018-02-03T19:32:43.597Z,-0.10
2018-02-03T19:35:11.053Z,0.00
2018-02-03T19:37:39.279Z,-0.10
2018-02-03T19:40:06.819Z,-0.10
2018-02-03T19:42:34.381Z,-0.10
2018-02-03T19:45:01.918Z,-0.10
2018-02-03T19:47:30.161Z,0.00
2018-02-03T19:49:57.678Z,-0.10
2018-02-03T19:52:25.254Z,0.00
2018-02-03T19:54:52.854Z,0.00
2018-02-03T19:57:21.321Z,0.10
2018-02-03T19:59:49.069Z,0.10
2018-02-03T20:02:17.599Z,0.00
2018-02-03T20:04:45.484Z,0.00
2018-02-03T20:07:13.377Z,0.10
2018-02-03T20:09:41.050Z,0.10
2018-02-03T20:12:08.651Z,0.10
2018-02-03T20:14:36.831Z,0.10
2018-02-03T20:17:05.249Z,0.10
2018-02-03T20:19:33.744Z,0.10
2018-02-03T20:22:01.546Z,0.10
2018-02-03T20:24:29.270Z,0.10
2018-02-03T20:26:57.043Z,0.10
2018-02-03T20:29:24.658Z,0.20
2018-02-03T20:31:53.452Z,0.20
2018-02-03T20:34:21.233Z,0.20
2018-02-03T20:36:49.863Z,0.10
2018-02-03T20:39:17.436Z,0.10
2018-02-03T20:41:45.813Z,0.00
2018-02-03T20:44:13.334Z,0.00
2018-02-03T20:46:41.614Z,0.00
2018-02-03T20:49:09.173Z,0.00
2018-02-03T20:51:36.686Z,0.00
2018-02-03T20:54:04.937Z,0.10
2018-02-03T20:56:32.497Z,0.10
2018-02-03T20:59:00.069Z,0.10
2018-02-03T21:01:27.780Z,0.10
2018-02-03T21:03:55.436Z,0.10
2018-02-03T21:06:23.709Z,0.00
2018-02-03T21:08:51.174Z,0.00
2018-02-03T21:11:18.638Z,0.00
2018-02-03T21:13:46.920Z,-0.10
2018-02-03T21:16:15.018Z,-0.10
2018-02-03T21:18:42.823Z,-0.20
2018-02-03T21:21:10.528Z,-0.20
2018-02-03T21:23:38.339Z,-0.20
2018-02-03T21:26:06.192Z,-0.20
2018-02-03T21:28:33.975Z,-0.20
2018-02-03T21:31:02.479Z,-0.30
2018-02-03T21:33:30.269Z,-0.30
2018-02-03T21:35:57.922Z,-0.30
2018-02-03T21:38:25.525Z,-0.30
2018-02-03T21:40:53.948Z,-0.40
2018-02-03T21:43:22.467Z,-0.40
2018-02-03T21:45:50.076Z,-0.50
2018-02-03T21:48:17.770Z,-0.40
2018-02-03T21:50:45.476Z,-0.40
2018-02-03T21:53:13.227Z,-0.50
2018-02-03T21:55:41.585Z,-0.60
2018-02-03T21:58:09.076Z,-0.60
2018-02-03T22:00:36.533Z,-0.60
2018-02-03T22:03:04.034Z,-0.60
2018-02-03T22:05:31.545Z,-0.70
2018-02-03T22:07:59.939Z,-0.70
2018-02-03T22:10:27.510Z,-0.70
2018-02-03T22:12:55.029Z,-0.60
2018-02-03T22:15:22.619Z,-0.70
2018-02-03T22:17:50.911Z,-0.70
2018-02-03T22:20:18.412Z,-0.70
2018-02-03T22:22:46.004Z,-0.80
2018-02-03T22:25:14.222Z,-0.80
2018-02-03T22:27:41.679Z,-0.80
2018-02-03T22:30:09.934Z,-0.80
2018-02-03T22:32:37.419Z,-0.80
2018-02-03T22:35:04.905Z,-0.90
2018-02-03T22:37:32.358Z,-0.90
2018-02-03T22:39:59.872Z,-0.90
2018-02-03T22:42:27.333Z,-1.00
2018-02-03T22:44:54.866Z,-1.10
2018-02-03T22:47:22.418Z,-1.10
2018-02-03T22:49:49.894Z,-1.10
2018-02-03T22:52:17.378Z,-1.20
2018-02-03T22:54:44.852Z,-1.20
2018-02-03T22:57:12.309Z,-1.30
2018-02-03T22:59:40.564Z,-1.40
2018-02-03T23:02:08.031Z,-1.40
2018-02-03T23:04:35.489Z,-1.50
2018-02-03T23:07:03.766Z,-1.60
2018-02-03T23:09:31.333Z,-1.70
2018-02-03T23:11:58.789Z,-1.80
2018-02-03T23:14:26.297Z,-1.80
2018-02-03T23:16:53.756Z,-1.90
2018-02-03T23:19:21.221Z,-2.00
2018-02-03T23:21:49.449Z,-2.10
2018-02-03T23:24:16.919Z,-2.10
2018-02-03T23:26:44.409Z,-2.20
2018-02-03T23:29:11.913Z,-2.30
2018-02-03T23:31:39.405Z,-2.40
2018-02-03T23:34:06.881Z,-2.50
2018-02-03T23:36:34.353Z,-2.50
2018-02-03T23:39:01.813Z,-2.50
2018-02-03T23:41:30.062Z,-2.50
2018-02-03T23:43:57.522Z,-2.50
2018-02-03T23:46:25.059Z,-2.60
2018-02-03T23:48:52.528Z,-2.60
2018-02-03T23:51:19.992Z,-2.70
2018-02-03T23:53:47.457Z,-2.60
2018-02-03T23:56:14.978Z,-2.70
2018-02-03T23:58:42.456Z,-2.70
